createdAt,value
2023-01-29T00:04:00.349Z,0.98
2023-01-29T00:09:02.953Z,1.55
2023-01-29T00:14:06.972Z,1.00
2023-01-29T00:19:09.612Z,1.70
2023-01-29T00:24:13.252Z,1.25
2023-01-29T00:29:15.888Z,1.70
2023-01-29T00:34:18.978Z,1.98
2023-01-29T00:39:29.388Z,1.20
2023-01-29T00:44:57.890Z,1.40
2023-01-29T00:50:06.362Z,1.77
2023-01-29T00:55:10.683Z,1.33
2023-01-29T01:00:19.138Z,1.63
2023-01-29T01:05:22.094Z,1.52
2023-01-29T01:10:33.505Z,1.10
2023-01-29T01:15:39.471Z,1.70
2023-01-29T01:20:42.316Z,1.48
2023-01-29T01:25:45.641Z,1.52
2023-01-29T01:30:49.213Z,1.65
2023-01-29T01:35:53.055Z,1.55
2023-01-29T01:46:03.318Z,1.30
2023-01-29T01:51:07.085Z,1.50
2023-01-29T01:56:19.836Z,2.67
2023-01-29T02:01:28.603Z,1.50
2023-01-29T02:06:52.073Z,1.35
2023-01-29T02:11:56.045Z,1.48
2023-01-29T02:17:02.232Z,1.80
2023-01-29T02:22:42.402Z,1.10
2023-01-29T02:28:19.111Z,1.88
2023-01-29T02:33:56.116Z,2.08
2023-01-29T02:39:35.749Z,1.65
2023-01-29T02:44:43.659Z,1.83
2023-01-29T02:50:19.395Z,1.65
2023-01-29T02:55:34.666Z,1.70
2023-01-29T03:00:42.623Z,1.58
2023-01-29T03:06:00.281Z,1.40
2023-01-29T03:11:06.976Z,1.42
2023-01-29T03:16:24.362Z,1.33
2023-01-29T03:21:52.788Z,1.08
2023-01-29T03:27:17.788Z,1.38
2023-01-29T03:32:25.105Z,1.52
2023-01-29T03:37:38.754Z,1.95
2023-01-29T03:43:02.492Z,1.23
2023-01-29T03:48:15.909Z,1.55
2023-01-29T03:53:34.916Z,1.48
2023-01-29T03:58:53.824Z,1.42
2023-01-29T04:04:15.750Z,1.40
2023-01-29T04:09:22.295Z,2.05
2023-01-29T04:14:27.230Z,2.72
2023-01-29T04:19:31.573Z,1.80
2023-01-29T04:24:35.978Z,1.30
2023-01-29T04:30:14.033Z,2.28
2023-01-29T04:35:27.417Z,1.88
2023-01-29T04:40:44.762Z,1.77
2023-01-29T04:46:20.241Z,1.88
2023-01-29T04:51:41.362Z,2.00
2023-01-29T04:57:14.431Z,1.52
2023-01-29T05:02:18.908Z,1.90
2023-01-29T05:07:24.768Z,1.80
2023-01-29T05:12:30.852Z,1.55
2023-01-29T05:17:34.831Z,1.60
2023-01-29T05:22:40.405Z,1.52
2023-01-29T05:28:02.259Z,2.33
2023-01-29T05:33:13.410Z,1.50
2023-01-29T05:38:19.359Z,1.27
2023-01-29T05:43:27.720Z,1.48
2023-01-29T05:48:32.668Z,2.00
2023-01-29T05:53:35.663Z,1.73
2023-01-29T05:58:38.859Z,1.92
2023-01-29T06:03:41.959Z,4.57
2023-01-29T06:08:44.591Z,2.08
2023-01-29T06:13:47.939Z,2.03
2023-01-29T06:18:50.548Z,1.60
2023-01-29T06:23:54.335Z,4.10
2023-01-29T06:28:57.058Z,1.80
2023-01-29T06:33:59.733Z,1.92
2023-01-29T06:39:03.277Z,2.63
2023-01-29T06:44:06.061Z,4.68
2023-01-29T06:49:08.637Z,2.92
2023-01-29T06:54:11.805Z,2.92
2023-01-29T06:59:14.715Z,3.00
2023-01-29T07:04:17.256Z,3.05
2023-01-29T07:09:19.946Z,3.38
2023-01-29T07:14:22.457Z,2.28
2023-01-29T07:19:25.007Z,2.90
2023-01-29T07:24:27.651Z,2.67
2023-01-29T07:29:30.349Z,2.83
2023-01-29T07:34:32.932Z,2.72
2023-01-29T07:39:35.460Z,2.22
2023-01-29T07:44:38.029Z,2.50
2023-01-29T07:49:40.528Z,2.58
2023-01-29T07:54:43.045Z,2.22
2023-01-29T07:59:45.639Z,3.88
2023-01-29T08:04:48.289Z,3.00
2023-01-29T08:09:51.037Z,2.08
2023-01-29T08:14:53.620Z,3.22
2023-01-29T08:19:56.381Z,3.42
2023-01-29T08:25:06.334Z,2.53
2023-01-29T08:30:12.113Z,3.47
2023-01-29T08:35:14.703Z,2.67
2023-01-29T08:40:17.633Z,3.45
2023-01-29T08:45:20.415Z,2.90
2023-01-29T08:50:23.071Z,3.78
2023-01-29T08:55:27.107Z,4.47
2023-01-29T09:00:29.931Z,4.13
2023-01-29T09:05:32.502Z,4.00
2023-01-29T09:10:35.766Z,2.70
2023-01-29T09:15:38.336Z,4.07
2023-01-29T09:20:40.947Z,3.50
2023-01-29T09:25:44.386Z,4.43
2023-01-29T09:30:47.212Z,3.30
2023-01-29T09:35:49.861Z,3.67
2023-01-29T09:41:13.591Z,2.67
2023-01-29T09:46:20.650Z,2.67
2023-01-29T09:51:34.245Z,3.92
2023-01-29T09:56:36.835Z,3.10
2023-01-29T10:02:00.879Z,3.47
2023-01-29T10:07:48.623Z,4.63
2023-01-29T10:13:14.078Z,3.10
2023-01-29T10:23:54.084Z,3.88
2023-01-29T10:29:00.164Z,3.63
2023-01-29T10:34:11.984Z,4.28
2023-01-29T10:39:30.754Z,6.93
2023-01-29T10:45:13.339Z,5.65
2023-01-29T10:50:41.453Z,4.22
2023-01-29T10:56:46.928Z,3.67
2023-01-29T11:01:49.556Z,2.38
2023-01-29T11:06:52.498Z,2.25
2023-01-29T11:12:00.027Z,3.40
2023-01-29T11:17:02.906Z,2.55
2023-01-29T11:22:05.580Z,2.30
2023-01-29T11:27:26.055Z,2.15
2023-01-29T11:32:35.457Z,4.93
2023-01-29T11:37:41.155Z,5.32
2023-01-29T11:42:43.809Z,3.38
2023-01-29T11:47:54.614Z,5.15
2023-01-29T11:52:59.232Z,3.28
2023-01-29T11:58:38.048Z,3.38
2023-01-29T12:03:55.000Z,2.38
2023-01-29T12:09:01.119Z,2.67
2023-01-29T12:14:34.311Z,4.65
2023-01-29T12:19:59.938Z,4.72
2023-01-29T12:25:41.818Z,4.80
2023-01-29T12:31:06.561Z,4.28
2023-01-29T12:36:24.506Z,4.93
2023-01-29T12:47:35.885Z,5.05
2023-01-29T12:53:20.939Z,4.43
2023-01-29T12:58:28.747Z,4.40
2023-01-29T13:03:59.645Z,2.90
2023-01-29T13:09:12.925Z,3.92
2023-01-29T13:14:42.953Z,4.40
2023-01-29T13:19:49.886Z,3.20
2023-01-29T13:25:04.203Z,4.45
2023-01-29T13:30:23.364Z,3.97
2023-01-29T13:35:25.929Z,5.20
2023-01-29T13:40:31.328Z,4.20
2023-01-29T13:45:44.829Z,3.33
2023-01-29T13:50:48.041Z,3.15
2023-01-29T13:55:50.758Z,4.85
2023-01-29T14:00:53.716Z,2.80
2023-01-29T14:06:01.070Z,2.72
2023-01-29T14:11:15.990Z,4.05
2023-01-29T14:16:18.537Z,4.80
2023-01-29T14:21:33.348Z,8.90
2023-01-29T14:26:48.374Z,9.90
2023-01-29T14:32:08.841Z,7.50
2023-01-29T14:37:18.816Z,3.67
2023-01-29T14:42:44.451Z,4.45
2023-01-29T14:47:49.713Z,3.38
2023-01-29T14:52:54.104Z,3.63
2023-01-29T14:57:58.344Z,3.70
2023-01-29T15:03:02.571Z,4.43
2023-01-29T15:08:40.472Z,4.10
2023-01-29T15:14:14.049Z,5.30
2023-01-29T15:19:27.543Z,4.40
2023-01-29T15:24:30.117Z,4.05
2023-01-29T15:29:32.815Z,3.55
2023-01-29T15:34:35.529Z,5.65
2023-01-29T15:39:43.917Z,3.83
2023-01-29T15:44:47.177Z,3.40
2023-01-29T15:49:49.900Z,2.83
2023-01-29T15:54:53.190Z,3.22
2023-01-29T15:59:58.986Z,7.28
2023-01-29T16:05:02.608Z,7.35
2023-01-29T16:10:06.982Z,6.05
2023-01-29T16:15:30.047Z,6.85
2023-01-29T16:20:38.879Z,12.25
2023-01-29T16:25:41.516Z,8.02
2023-01-29T16:30:44.572Z,11.23
2023-01-29T16:35:52.542Z,10.13
2023-01-29T16:41:24.061Z,8.60
2023-01-29T16:46:39.012Z,7.88
2023-01-29T16:51:41.675Z,7.72
2023-01-29T16:56:46.804Z,6.03
2023-01-29T17:01:50.218Z,4.80
2023-01-29T17:07:00.566Z,2.80
2023-01-29T17:12:07.584Z,3.60
2023-01-29T17:17:18.961Z,3.28
2023-01-29T17:22:21.497Z,2.42
2023-01-29T17:27:24.526Z,3.28
2023-01-29T17:32:44.254Z,3.10
2023-01-29T17:37:47.949Z,3.15
2023-01-29T17:42:50.662Z,2.88
2023-01-29T17:47:53.202Z,3.30
2023-01-29T17:52:55.873Z,3.03
2023-01-29T17:57:58.620Z,3.10
2023-01-29T18:03:02.481Z,5.32
2023-01-29T18:08:05.227Z,3.85
2023-01-29T18:13:07.777Z,2.50
2023-01-29T18:18:18.426Z,2.85
2023-01-29T18:23:21.212Z,2.42
2023-01-29T18:28:24.817Z,3.83
2023-01-29T18:33:27.404Z,2.15
2023-01-29T18:38:29.927Z,13.55
2023-01-29T18:43:32.650Z,5.80
2023-01-29T18:48:35.776Z,6.30
2023-01-29T18:53:38.364Z,5.65
2023-01-29T18:58:40.969Z,4.82
2023-01-29T19:03:43.570Z,3.97
2023-01-29T19:08:47.455Z,4.53
2023-01-29T19:13:50.112Z,2.22
2023-01-29T19:18:56.147Z,3.38
2023-01-29T19:23:58.684Z,2.45
2023-01-29T19:29:01.866Z,2.50
2023-01-29T19:34:04.471Z,2.30
2023-01-29T19:39:07.052Z,3.78
2023-01-29T19:44:11.649Z,3.13
2023-01-29T19:49:14.342Z,2.45
2023-01-29T19:54:16.955Z,2.75
2023-01-29T19:59:20.017Z,3.55
2023-01-29T20:04:22.730Z,4.45
2023-01-29T20:09:25.390Z,2.30
2023-01-29T20:14:27.999Z,1.65
2023-01-29T20:19:30.786Z,2.65
2023-01-29T20:24:34.644Z,2.05
2023-01-29T20:29:38.637Z,1.98
2023-01-29T20:34:42.123Z,1.88
2023-01-29T20:39:44.716Z,1.60
2023-01-29T20:44:47.503Z,1.50
2023-01-29T20:49:50.463Z,1.20
2023-01-29T20:54:53.001Z,1.58
2023-01-29T20:59:55.715Z,1.00
2023-01-29T21:04:58.409Z,1.60
2023-01-29T21:10:01.048Z,1.10
2023-01-29T21:15:04.073Z,1.00
2023-01-29T21:20:08.570Z,0.90
2023-01-29T21:25:11.673Z,1.05
2023-01-29T21:30:14.872Z,0.65
2023-01-29T21:35:17.808Z,1.23
2023-01-29T21:40:25.326Z,1.52
2023-01-29T21:45:27.944Z,1.63
2023-01-29T21:50:30.561Z,1.45
2023-01-29T21:55:33.460Z,0.85
2023-01-29T22:00:36.106Z,0.90
2023-01-29T22:05:39.598Z,0.93
2023-01-29T22:10:42.173Z,0.52
2023-01-29T22:15:44.864Z,0.70
2023-01-29T22:20:56.838Z,0.50
2023-01-29T22:26:09.076Z,0.50
2023-01-29T22:31:12.095Z,0.32
2023-01-29T22:36:14.965Z,0.40
2023-01-29T22:41:17.676Z,0.68
2023-01-29T22:46:20.961Z,0.45
2023-01-29T22:51:23.925Z,0.40
2023-01-29T22:56:29.678Z,0.40
2023-01-29T23:01:33.113Z,0.20
2023-01-29T23:06:35.680Z,0.20
2023-01-29T23:11:38.215Z,0.28
2023-01-29T23:16:40.769Z,0.30
2023-01-29T23:21:43.755Z,0.30
2023-01-29T23:27:05.062Z,0.20
2023-01-29T23:32:07.758Z,0.20
2023-01-29T23:37:10.523Z,0.30
2023-01-29T23:42:13.077Z,0.28
2023-01-29T23:47:15.609Z,0.30
2023-01-29T23:52:18.391Z,0.20
2023-01-29T23:57:21.156Z,0.20
